createdAt,value
2024-01-22T00:00:39.464Z,-12.77
2024-01-22T00:03:06.646Z,-12.47
2024-01-22T00:05:33.977Z,-12.45
2024-01-22T00:08:04.208Z,-12.59
2024-01-22T00:10:31.265Z,-12.38
2024-01-22T00:12:58.412Z,-12.25
2024-01-22T00:15:25.404Z,-12.31
2024-01-22T00:17:52.614Z,-12.56
2024-01-22T00:20:20.052Z,-12.57
2024-01-22T00:22:47.185Z,-12.22
2024-01-22T00:25:14.472Z,-12.39
2024-01-22T00:27:41.545Z,-12.27
2024-01-22T00:30:09.238Z,-12.27
2024-01-22T00:32:36.446Z,-12.41
2024-01-22T00:35:03.714Z,-12.31
2024-01-22T00:37:30.875Z,-12.24
2024-01-22T00:39:57.847Z,-12.31
2024-01-22T00:42:25.129Z,-12.50
2024-01-22T00:44:56.478Z,-12.44
2024-01-22T00:47:23.673Z,-12.24
2024-01-22T00:49:50.863Z,-12.32
2024-01-22T00:52:18.170Z,-12.18
2024-01-22T00:54:45.234Z,-12.11
2024-01-22T00:57:12.503Z,-12.00
2024-01-22T00:59:39.607Z,-11.95
2024-01-22T01:02:07.229Z,-11.97
2024-01-22T01:04:34.285Z,-11.93
2024-01-22T01:07:10.717Z,-12.08
2024-01-22T01:09:41.886Z,-12.24
2024-01-22T01:12:09.051Z,-12.63
2024-01-22T01:14:36.106Z,-12.49
2024-01-22T01:17:03.295Z,-12.60
2024-01-22T01:19:30.363Z,-12.42
2024-01-22T01:21:57.401Z,-12.51
2024-01-22T01:24:24.514Z,-12.47
2024-01-22T01:26:51.603Z,-12.66
2024-01-22T01:29:18.611Z,-13.14
2024-01-22T01:31:45.753Z,-13.11
2024-01-22T01:34:12.839Z,-12.90
2024-01-22T01:36:39.893Z,-12.95
2024-01-22T01:39:07.195Z,-13.14
2024-01-22T01:41:34.430Z,-13.21
2024-01-22T01:44:01.575Z,-13.31
2024-01-22T01:46:28.654Z,-13.46
2024-01-22T01:48:57.373Z,-13.26
2024-01-22T01:51:25.689Z,-13.10
2024-01-22T01:53:54.713Z,-13.25
2024-01-22T01:56:24.920Z,-13.51
2024-01-22T01:58:53.012Z,-13.42
2024-01-22T02:01:21.328Z,-13.71
2024-01-22T02:03:49.127Z,-13.80
2024-01-22T02:06:16.685Z,-13.65
2024-01-22T02:08:53.885Z,-13.55
2024-01-22T02:11:22.331Z,-13.26
2024-01-22T02:13:49.724Z,-13.07
2024-01-22T02:16:16.945Z,-13.05
2024-01-22T02:18:44.261Z,-13.31
2024-01-22T02:21:11.720Z,-12.92
2024-01-22T02:23:39.040Z,-12.76
2024-01-22T02:26:06.256Z,-12.77
2024-01-22T02:28:33.500Z,-12.65
2024-01-22T02:31:01.017Z,-12.49
2024-01-22T02:33:28.108Z,-12.37
2024-01-22T02:35:55.303Z,-12.58
2024-01-22T02:38:22.357Z,-13.32
2024-01-22T02:40:49.532Z,-13.46
2024-01-22T02:43:16.535Z,-13.66
2024-01-22T02:45:43.651Z,-13.83
2024-01-22T02:48:10.723Z,-14.38
2024-01-22T02:50:37.890Z,-14.54
2024-01-22T02:53:05.160Z,-14.52
2024-01-22T02:55:32.334Z,-14.55
2024-01-22T02:57:59.343Z,-14.63
2024-01-22T03:00:26.874Z,-14.97
2024-01-22T03:02:54.065Z,-14.90
2024-01-22T03:05:21.194Z,-14.62
2024-01-22T03:07:48.257Z,-15.10
2024-01-22T03:10:16.030Z,-14.73
2024-01-22T03:12:43.099Z,-14.50
2024-01-22T03:15:10.511Z,-14.36
2024-01-22T03:17:37.826Z,-14.35
2024-01-22T03:20:05.524Z,-14.11
2024-01-22T03:22:32.585Z,-14.12
2024-01-22T03:24:59.692Z,-13.96
2024-01-22T03:27:26.804Z,-14.03
2024-01-22T03:29:54.096Z,-14.00
2024-01-22T03:32:21.289Z,-13.87
2024-01-22T03:34:48.609Z,-13.84
2024-01-22T03:37:15.733Z,-13.74
2024-01-22T03:39:42.938Z,-13.68
2024-01-22T03:42:09.925Z,-13.52
2024-01-22T03:44:37.038Z,-13.58
2024-01-22T03:47:04.045Z,-13.44
2024-01-22T03:49:31.241Z,-13.38
2024-01-22T03:51:58.314Z,-13.15
2024-01-22T03:54:25.382Z,-13.17
2024-01-22T03:56:52.478Z,-13.03
2024-01-22T03:59:19.793Z,-13.11
2024-01-22T04:01:49.186Z,-12.92
2024-01-22T04:04:16.382Z,-13.10
2024-01-22T04:06:43.612Z,-12.94
2024-01-22T04:09:10.835Z,-12.87
2024-01-22T04:11:37.966Z,-12.82
2024-01-22T04:14:05.100Z,-13.03
2024-01-22T04:16:32.084Z,-13.04
2024-01-22T04:18:59.334Z,-13.11
2024-01-22T04:21:26.494Z,-13.45
2024-01-22T04:23:54.616Z,-13.36
2024-01-22T04:26:21.719Z,-13.54
2024-01-22T04:28:48.833Z,-13.70
2024-01-22T04:31:15.851Z,-13.77
2024-01-22T04:33:45.863Z,-13.84
2024-01-22T04:36:13.182Z,-14.08
2024-01-22T04:38:40.287Z,-14.15
2024-01-22T04:41:07.337Z,-14.22
2024-01-22T04:43:34.417Z,-14.39
2024-01-22T04:46:01.381Z,-14.36
2024-01-22T04:48:28.575Z,-14.63
2024-01-22T04:50:55.672Z,-14.82
2024-01-22T04:53:22.704Z,-14.77
2024-01-22T04:55:49.773Z,-14.60
2024-01-22T04:58:16.819Z,-14.66
2024-01-22T05:00:43.839Z,-14.96
2024-01-22T05:03:10.942Z,-14.88
2024-01-22T05:05:38.744Z,-14.96
2024-01-22T05:08:06.640Z,-15.17
2024-01-22T05:10:33.794Z,-15.14
2024-01-22T05:13:01.038Z,-15.30
2024-01-22T05:15:29.341Z,-15.36
2024-01-22T05:17:56.546Z,-15.16
2024-01-22T05:20:23.703Z,-15.16
2024-01-22T05:22:50.719Z,-15.16
2024-01-22T05:25:17.720Z,-15.17
2024-01-22T05:27:44.802Z,-15.06
2024-01-22T05:30:12.305Z,-15.00
2024-01-22T05:32:39.515Z,-14.75
2024-01-22T05:35:06.922Z,-14.85
2024-01-22T05:37:33.958Z,-14.86
2024-01-22T05:40:01.181Z,-14.88
2024-01-22T05:42:28.260Z,-15.09
2024-01-22T05:44:55.306Z,-15.04
2024-01-22T05:47:22.375Z,-14.92
2024-01-22T05:49:49.425Z,-15.16
2024-01-22T05:52:16.472Z,-15.05
2024-01-22T05:54:43.434Z,-14.97
2024-01-22T05:57:10.465Z,-14.96
2024-01-22T05:59:39.790Z,-15.03
2024-01-22T06:02:07.088Z,-14.73
2024-01-22T06:04:34.150Z,-14.64
2024-01-22T06:07:05.372Z,-14.70
2024-01-22T06:09:33.373Z,-14.64
2024-01-22T06:12:00.540Z,-14.73
2024-01-22T06:14:27.626Z,-14.41
2024-01-22T06:16:54.649Z,-14.29
2024-01-22T06:19:21.766Z,-14.61
2024-01-22T06:21:48.816Z,-14.60
2024-01-22T06:24:16.301Z,-14.53
2024-01-22T06:26:43.534Z,-14.49
2024-01-22T06:29:10.559Z,-14.58
2024-01-22T06:31:37.499Z,-14.78
2024-01-22T06:34:04.853Z,-14.69
2024-01-22T06:36:31.884Z,-15.05
2024-01-22T06:38:59.185Z,-14.57
2024-01-22T06:41:26.213Z,-14.47
2024-01-22T06:43:53.317Z,-14.32
2024-01-22T06:46:20.316Z,-14.59
2024-01-22T06:48:47.562Z,-14.51
2024-01-22T06:51:14.703Z,-14.41
2024-01-22T06:53:41.918Z,-14.97
2024-01-22T06:56:11.741Z,-14.73
2024-01-22T06:58:38.755Z,-14.61
2024-01-22T07:01:06.000Z,-14.41
2024-01-22T07:03:33.373Z,-14.63
2024-01-22T07:06:03.992Z,-14.75
2024-01-22T07:08:34.347Z,-14.57
2024-01-22T07:11:01.560Z,-14.43
2024-01-22T07:13:28.618Z,-14.32
2024-01-22T07:15:55.894Z,-14.22
2024-01-22T07:18:23.164Z,-13.99
2024-01-22T07:20:50.330Z,-14.12
2024-01-22T07:23:17.441Z,-13.59
2024-01-22T07:25:49.675Z,-13.38
2024-01-22T07:28:16.871Z,-13.48
2024-01-22T07:30:43.858Z,-13.22
2024-01-22T07:33:11.102Z,-12.96
2024-01-22T07:35:38.331Z,-12.80
2024-01-22T07:38:05.540Z,-12.54
2024-01-22T07:40:32.771Z,-13.04
2024-01-22T07:43:00.314Z,-12.45
2024-01-22T07:45:27.377Z,-12.39
2024-01-22T07:47:54.976Z,-12.44
2024-01-22T07:50:22.051Z,-12.46
2024-01-22T07:52:49.203Z,-12.28
2024-01-22T07:55:16.648Z,-11.96
2024-01-22T07:57:43.767Z,-11.87
2024-01-22T08:00:11.328Z,-11.89
2024-01-22T08:02:42.021Z,-11.76
2024-01-22T08:05:09.747Z,-11.79
2024-01-22T08:07:39.334Z,-11.48
2024-01-22T08:10:06.826Z,-11.63
2024-01-22T08:12:36.408Z,-11.58
2024-01-22T08:15:04.059Z,-11.27
2024-01-22T08:17:33.754Z,-11.24
2024-01-22T08:20:03.207Z,-10.87
2024-01-22T08:22:30.383Z,-11.18
2024-01-22T08:24:57.350Z,-10.92
2024-01-22T08:27:24.494Z,-10.77
2024-01-22T08:29:51.604Z,-10.67
2024-01-22T08:32:18.744Z,-10.95
2024-01-22T08:34:46.092Z,-10.52
2024-01-22T08:37:13.273Z,-10.39
2024-01-22T08:39:40.729Z,-10.38
2024-01-22T08:42:07.818Z,-10.28
2024-01-22T08:44:36.149Z,-10.40
2024-01-22T08:47:03.882Z,-10.23
2024-01-22T08:49:31.451Z,-10.02
2024-01-22T08:51:59.160Z,-10.13
2024-01-22T08:54:26.477Z,-10.14
2024-01-22T08:56:53.578Z,-9.93
2024-01-22T08:59:21.282Z,-9.74
2024-01-22T09:01:48.739Z,-9.54
2024-01-22T09:04:15.895Z,-9.60
2024-01-22T09:06:43.278Z,-9.61
2024-01-22T09:09:14.046Z,-9.29
2024-01-22T09:11:41.418Z,-9.28
2024-01-22T09:14:10.534Z,-9.03
2024-01-22T09:16:37.725Z,-8.91
2024-01-22T09:19:07.623Z,-8.78
2024-01-22T09:21:34.960Z,-8.68
2024-01-22T09:24:01.946Z,-8.57
2024-01-22T09:26:29.361Z,-8.68
2024-01-22T09:28:56.441Z,-8.71
2024-01-22T09:31:23.650Z,-8.51
2024-01-22T09:33:50.720Z,-8.18
2024-01-22T09:36:18.798Z,-8.29
2024-01-22T09:38:46.360Z,-8.43
2024-01-22T09:41:15.121Z,-8.49
2024-01-22T09:43:44.000Z,-8.61
2024-01-22T09:46:11.814Z,-8.68
2024-01-22T09:48:39.144Z,-8.63
2024-01-22T09:51:07.124Z,-8.87
2024-01-22T09:53:38.445Z,-8.97
2024-01-22T09:56:09.455Z,-9.44
2024-01-22T09:58:53.573Z,-9.74
2024-01-22T10:01:20.938Z,-9.47
2024-01-22T10:03:51.231Z,-9.36
2024-01-22T10:06:18.746Z,-9.45
2024-01-22T10:08:58.172Z,-9.43
2024-01-22T10:11:28.280Z,-9.59
2024-01-22T10:13:57.839Z,-9.34
2024-01-22T10:16:31.773Z,-9.36
2024-01-22T10:19:03.431Z,-9.31
2024-01-22T10:21:31.524Z,-9.16
2024-01-22T10:24:03.168Z,-9.37
2024-01-22T10:26:33.551Z,-8.93
2024-01-22T10:29:20.216Z,-8.84
2024-01-22T10:32:01.433Z,-9.26
2024-01-22T10:34:42.840Z,-9.11
2024-01-22T10:37:11.863Z,-9.41
2024-01-22T10:39:43.379Z,-9.09
2024-01-22T10:42:15.096Z,-9.27
2024-01-22T10:44:47.694Z,-9.52
2024-01-22T10:47:16.317Z,-9.22
2024-01-22T10:49:49.637Z,-9.67
2024-01-22T10:52:20.187Z,-9.70
2024-01-22T10:54:50.828Z,-9.65
2024-01-22T10:57:30.458Z,-9.66
2024-01-22T11:00:03.348Z,-9.47
2024-01-22T11:02:36.587Z,-9.42
2024-01-22T11:05:12.733Z,-9.23
2024-01-22T11:07:41.361Z,-9.27
2024-01-22T11:10:15.673Z,-9.33
2024-01-22T11:12:55.158Z,-9.35
2024-01-22T11:15:22.266Z,-9.26
2024-01-22T11:17:49.715Z,-9.46
2024-01-22T11:20:17.471Z,-9.40
2024-01-22T11:23:03.550Z,-9.41
2024-01-22T11:25:30.933Z,-9.41
2024-01-22T11:28:11.592Z,-10.00
2024-01-22T11:30:43.165Z,-9.93
2024-01-22T11:33:22.927Z,-9.77
2024-01-22T11:35:50.732Z,-10.15
2024-01-22T11:38:46.221Z,-10.11
2024-01-22T11:41:21.654Z,-10.16
2024-01-22T11:43:52.077Z,-9.99
2024-01-22T11:46:21.623Z,-10.47
2024-01-22T11:48:57.551Z,-10.41
2024-01-22T11:51:30.854Z,-10.37
2024-01-22T11:53:59.154Z,-10.42
2024-01-22T11:56:26.419Z,-10.36
2024-01-22T11:59:04.064Z,-10.24
2024-01-22T12:01:34.234Z,-10.29
2024-01-22T12:04:17.379Z,-10.31
2024-01-22T12:06:52.033Z,-10.23
2024-01-22T12:09:21.261Z,-10.21
2024-01-22T12:11:54.154Z,-10.26
2024-01-22T12:14:22.230Z,-10.15
2024-01-22T12:17:02.498Z,-10.27
2024-01-22T12:19:32.440Z,-10.09
2024-01-22T12:22:02.770Z,-9.99
2024-01-22T12:24:30.034Z,-8.49
2024-01-22T12:26:58.394Z,-8.04
2024-01-22T12:29:27.555Z,-7.77
2024-01-22T12:32:11.294Z,-8.41
2024-01-22T12:34:41.306Z,-9.10
2024-01-22T12:37:31.856Z,-9.49
2024-01-22T12:40:13.074Z,-9.46
2024-01-22T12:42:40.401Z,-9.64
2024-01-22T12:45:11.389Z,-9.91
2024-01-22T12:47:40.188Z,-10.34
2024-01-22T12:50:09.437Z,-10.46
2024-01-22T12:52:37.139Z,-10.60
2024-01-22T12:55:04.414Z,-10.84
2024-01-22T12:57:31.755Z,-10.97
2024-01-22T12:59:59.211Z,-10.98
2024-01-22T13:02:26.562Z,-11.33
2024-01-22T13:04:53.649Z,-11.65
2024-01-22T13:07:20.953Z,-11.87
2024-01-22T13:09:48.079Z,-11.92
2024-01-22T13:12:17.154Z,-11.78
2024-01-22T13:14:44.352Z,-11.94
2024-01-22T13:17:11.543Z,-12.11
2024-01-22T13:19:41.672Z,-12.30
2024-01-22T13:22:11.058Z,-12.45
2024-01-22T13:24:38.128Z,-12.58
2024-01-22T13:27:05.607Z,-12.45
2024-01-22T13:29:33.013Z,-12.70
2024-01-22T13:32:00.321Z,-12.80
2024-01-22T13:34:27.536Z,-12.89
2024-01-22T13:36:55.629Z,-13.42
2024-01-22T13:39:23.132Z,-13.32
2024-01-22T13:41:50.372Z,-13.39
2024-01-22T13:44:22.557Z,-13.34
2024-01-22T13:46:50.928Z,-13.33
2024-01-22T13:49:18.647Z,-13.56
2024-01-22T13:51:45.835Z,-13.74
2024-01-22T13:54:13.539Z,-13.87
2024-01-22T13:56:40.907Z,-13.97
2024-01-22T13:59:08.058Z,-13.82
2024-01-22T14:01:35.947Z,-14.05
2024-01-22T14:04:03.213Z,-13.94
2024-01-22T14:06:30.786Z,-14.05
2024-01-22T14:08:58.500Z,-14.38
2024-01-22T14:11:25.825Z,-14.22
2024-01-22T14:13:53.742Z,-14.20
2024-01-22T14:16:20.939Z,-14.09
2024-01-22T14:18:48.847Z,-14.14
2024-01-22T14:21:17.570Z,-14.09
2024-01-22T14:23:46.086Z,-14.11
2024-01-22T14:26:16.079Z,-14.31
2024-01-22T14:28:44.138Z,-14.34
2024-01-22T14:31:12.482Z,-14.09
2024-01-22T14:33:39.748Z,-14.00
2024-01-22T14:36:08.508Z,-13.98
2024-01-22T14:38:36.470Z,-14.13
2024-01-22T14:41:06.598Z,-14.44
2024-01-22T14:43:33.857Z,-14.38
2024-01-22T14:46:01.088Z,-14.31
2024-01-22T14:48:28.296Z,-14.57
2024-01-22T14:50:55.589Z,-14.54
2024-01-22T14:53:22.753Z,-14.74
2024-01-22T14:55:52.617Z,-14.54
2024-01-22T14:58:19.665Z,-14.69
2024-01-22T15:00:46.653Z,-14.96
2024-01-22T15:03:14.021Z,-14.46
2024-01-22T15:05:41.338Z,-14.49
2024-01-22T15:08:08.433Z,-14.96
2024-01-22T15:10:41.699Z,-14.78
2024-01-22T15:13:09.423Z,-14.79
2024-01-22T15:15:37.582Z,-14.73
2024-01-22T15:18:08.585Z,-14.83
2024-01-22T15:20:35.976Z,-14.72
2024-01-22T15:23:03.311Z,-14.90
2024-01-22T15:25:34.383Z,-15.07
2024-01-22T15:28:01.625Z,-14.90
2024-01-22T15:30:30.640Z,-14.78
2024-01-22T15:32:58.045Z,-14.72
2024-01-22T15:35:25.421Z,-14.93
2024-01-22T15:37:54.761Z,-15.05
2024-01-22T15:40:22.092Z,-14.88
2024-01-22T15:42:49.324Z,-14.89
2024-01-22T15:45:16.539Z,-15.12
2024-01-22T15:47:44.430Z,-15.11
2024-01-22T15:50:11.964Z,-15.16
2024-01-22T15:52:40.157Z,-15.27
2024-01-22T15:55:07.618Z,-15.02
2024-01-22T15:57:39.354Z,-15.27
2024-01-22T16:00:08.161Z,-15.21
2024-01-22T16:02:38.688Z,-15.09
2024-01-22T16:05:06.495Z,-15.24
2024-01-22T16:07:33.729Z,-15.94
2024-01-22T16:10:01.049Z,-15.34
2024-01-22T16:12:28.869Z,-15.30
2024-01-22T16:14:56.222Z,-15.39
2024-01-22T16:17:24.124Z,-15.32
2024-01-22T16:19:51.667Z,-15.44
2024-01-22T16:22:18.945Z,-15.44
2024-01-22T16:24:46.279Z,-15.25
2024-01-22T16:27:15.788Z,-15.12
2024-01-22T16:29:46.084Z,-15.15
2024-01-22T16:32:15.938Z,-15.15
2024-01-22T16:34:43.211Z,-15.03
2024-01-22T16:37:10.731Z,-15.44
2024-01-22T16:39:38.295Z,-15.17
2024-01-22T16:42:11.470Z,-14.96
2024-01-22T16:44:38.784Z,-15.14
2024-01-22T16:47:24.440Z,-15.11
2024-01-22T16:50:11.284Z,-15.14
2024-01-22T16:52:41.599Z,-15.08
2024-01-22T16:55:11.450Z,-15.21
2024-01-22T16:57:39.789Z,-15.12
2024-01-22T17:00:07.710Z,-15.21
2024-01-22T17:02:35.152Z,-15.23
2024-01-22T17:05:07.742Z,-15.56
2024-01-22T17:07:37.523Z,-15.18
2024-01-22T17:10:10.071Z,-15.43
2024-01-22T17:12:37.175Z,-15.37
2024-01-22T17:15:05.635Z,-15.44
2024-01-22T17:17:32.895Z,-15.43
2024-01-22T17:20:00.165Z,-15.67
2024-01-22T17:22:28.926Z,-15.58
2024-01-22T17:24:56.121Z,-15.70
2024-01-22T17:27:23.438Z,-15.69
2024-01-22T17:29:50.641Z,-15.68
2024-01-22T17:32:18.193Z,-15.81
2024-01-22T17:34:45.681Z,-15.73
2024-01-22T17:37:13.810Z,-15.79
2024-01-22T17:39:46.524Z,-15.81
2024-01-22T17:42:21.698Z,-15.77
2024-01-22T17:44:55.082Z,-16.03
2024-01-22T17:47:22.466Z,-16.16
2024-01-22T17:49:49.676Z,-16.21
2024-01-22T17:52:16.992Z,-16.40
2024-01-22T17:54:44.296Z,-16.48
2024-01-22T17:57:11.792Z,-16.30
2024-01-22T17:59:38.975Z,-16.37
2024-01-22T18:02:06.871Z,-16.44
2024-01-22T18:04:34.338Z,-16.37
2024-01-22T18:07:01.751Z,-16.45
2024-01-22T18:09:30.077Z,-16.24
2024-01-22T18:11:57.396Z,-16.41
2024-01-22T18:14:24.516Z,-16.24
2024-01-22T18:16:51.738Z,-16.30
2024-01-22T18:19:19.622Z,-16.47
2024-01-22T18:21:47.069Z,-16.27
2024-01-22T18:24:15.486Z,-16.19
2024-01-22T18:26:42.761Z,-16.24
2024-01-22T18:29:09.842Z,-16.00
2024-01-22T18:31:37.102Z,-16.05
2024-01-22T18:34:06.564Z,-15.95
2024-01-22T18:36:39.134Z,-16.03
2024-01-22T18:46:53.869Z,-15.93
2024-01-22T18:49:21.259Z,-15.71
2024-01-22T18:51:48.823Z,-15.78
2024-01-22T18:54:16.401Z,-15.69
2024-01-22T18:56:44.305Z,-15.58
2024-01-22T18:59:11.483Z,-15.36
2024-01-22T19:01:38.736Z,-15.28
2024-01-22T19:04:06.293Z,-15.39
2024-01-22T19:06:35.351Z,-15.49
2024-01-22T19:09:02.924Z,-15.47
2024-01-22T19:11:36.987Z,-15.39
2024-01-22T19:14:19.489Z,-15.55
2024-01-22T19:16:46.917Z,-15.50
2024-01-22T19:19:37.965Z,-15.48
2024-01-22T19:22:18.525Z,-15.55
2024-01-22T19:24:45.723Z,-15.40
2024-01-22T19:27:14.468Z,-15.27
2024-01-22T19:29:41.578Z,-15.34
2024-01-22T19:32:09.294Z,-15.30
2024-01-22T19:34:40.500Z,-15.39
2024-01-22T19:37:08.082Z,-15.09
2024-01-22T19:39:35.157Z,-15.16
2024-01-22T19:42:02.492Z,-14.94
2024-01-22T19:44:29.496Z,-15.08
2024-01-22T19:46:56.710Z,-14.87
2024-01-22T19:49:23.692Z,-14.82
2024-01-22T19:51:50.877Z,-14.75
2024-01-22T19:54:18.131Z,-14.70
2024-01-22T19:56:45.985Z,-14.66
2024-01-22T19:59:13.314Z,-14.45
2024-01-22T20:01:40.528Z,-14.46
2024-01-22T20:04:08.575Z,-14.33
2024-01-22T20:06:35.841Z,-14.42
2024-01-22T20:09:03.021Z,-14.78
2024-01-22T20:11:30.239Z,-14.37
2024-01-22T20:13:57.243Z,-14.42
2024-01-22T20:16:24.424Z,-14.56
2024-01-22T20:18:53.819Z,-14.36
2024-01-22T20:21:21.723Z,-14.32
2024-01-22T20:23:56.637Z,-14.33
2024-01-22T20:26:32.539Z,-14.30
2024-01-22T20:28:59.593Z,-14.18
2024-01-22T20:31:26.650Z,-14.18
2024-01-22T20:33:53.858Z,-14.21
2024-01-22T20:36:23.052Z,-14.35
2024-01-22T20:38:50.202Z,-14.20
2024-01-22T20:41:17.393Z,-14.14
2024-01-22T20:43:44.450Z,-14.09
2024-01-22T20:46:11.574Z,-14.09
2024-01-22T20:48:38.950Z,-14.21
2024-01-22T20:51:06.710Z,-14.08
2024-01-22T20:53:33.742Z,-14.14
2024-01-22T20:56:01.670Z,-14.12
2024-01-22T20:58:31.104Z,-14.10
2024-01-22T21:00:58.586Z,-14.29
2024-01-22T21:03:25.915Z,-14.24
2024-01-22T21:05:53.538Z,-14.14
2024-01-22T21:08:20.703Z,-14.13
2024-01-22T21:10:47.854Z,-14.21
2024-01-22T21:13:15.265Z,-13.99
2024-01-22T21:15:42.482Z,-14.07
2024-01-22T21:18:09.742Z,-14.08
2024-01-22T21:20:37.429Z,-13.88
2024-01-22T21:23:04.757Z,-13.94
2024-01-22T21:25:31.931Z,-13.86
2024-01-22T21:27:58.893Z,-13.96
2024-01-22T21:30:26.223Z,-14.14
2024-01-22T21:32:54.226Z,-14.30
2024-01-22T21:35:21.303Z,-14.20
2024-01-22T21:37:49.541Z,-14.47
2024-01-22T21:40:16.707Z,-14.29
2024-01-22T21:42:43.948Z,-14.39
2024-01-22T21:45:10.978Z,-14.25
2024-01-22T21:47:38.024Z,-14.23
2024-01-22T21:50:05.338Z,-14.58
2024-01-22T21:52:32.439Z,-14.40
2024-01-22T21:54:59.969Z,-14.59
2024-01-22T21:57:27.220Z,-14.63
2024-01-22T21:59:54.323Z,-14.60
2024-01-22T22:02:21.933Z,-14.55
2024-01-22T22:04:49.265Z,-14.48
2024-01-22T22:07:16.407Z,-14.44
2024-01-22T22:09:43.657Z,-14.35
2024-01-22T22:12:11.739Z,-14.29
2024-01-22T22:14:38.776Z,-14.12
2024-01-22T22:17:06.274Z,-14.23
2024-01-22T22:19:33.735Z,-14.35
2024-01-22T22:22:00.939Z,-14.04
2024-01-22T22:24:28.030Z,-14.49
2024-01-22T22:26:55.168Z,-14.44
2024-01-22T22:29:22.315Z,-14.22
2024-01-22T22:31:49.309Z,-14.04
2024-01-22T22:34:16.847Z,-14.05
2024-01-22T22:36:44.163Z,-13.92
2024-01-22T22:39:11.314Z,-14.20
2024-01-22T22:41:41.408Z,-14.11
2024-01-22T22:44:08.540Z,-14.33
2024-01-22T22:46:35.526Z,-14.25
2024-01-22T22:49:02.636Z,-14.22
2024-01-22T22:51:29.648Z,-14.25
2024-01-22T22:53:56.892Z,-14.21
2024-01-22T22:56:24.004Z,-14.09
2024-01-22T22:58:51.033Z,-14.03
2024-01-22T23:01:18.046Z,-13.98
2024-01-22T23:03:45.295Z,-14.00
2024-01-22T23:06:12.734Z,-14.04
2024-01-22T23:08:39.802Z,-13.72
2024-01-22T23:11:06.857Z,-13.73
2024-01-22T23:13:33.861Z,-13.60
2024-01-22T23:16:00.878Z,-13.49
2024-01-22T23:18:28.037Z,-13.43
2024-01-22T23:20:55.258Z,-13.28
2024-01-22T23:23:22.278Z,-13.13
2024-01-22T23:25:49.327Z,-13.05
2024-01-22T23:28:16.303Z,-13.26
2024-01-22T23:30:43.389Z,-13.22
2024-01-22T23:33:10.477Z,-12.95
2024-01-22T23:35:37.587Z,-13.25
2024-01-22T23:38:04.829Z,-12.75
2024-01-22T23:40:31.882Z,-12.69
2024-01-22T23:42:58.882Z,-12.48
2024-01-22T23:46:07.250Z,-12.27
2024-01-22T23:52:19.884Z,-12.34
2024-01-22T23:54:46.917Z,-12.40
2024-01-22T23:57:13.906Z,-12.61
2024-01-22T23:59:42.230Z,-12.17
